createdAt,value
2023-02-11T00:01:28.305Z,28.90
2023-02-11T00:03:56.744Z,26.48
2023-02-11T00:06:27.974Z,28.70
2023-02-11T00:08:56.007Z,27.83
2023-02-11T00:11:25.553Z,26.85
2023-02-11T00:13:53.857Z,28.08
2023-02-11T00:16:22.218Z,27.13
2023-02-11T00:18:53.011Z,27.83
2023-02-11T00:21:23.776Z,27.35
2023-02-11T00:23:53.429Z,27.13
2023-02-11T00:26:24.193Z,26.65
2023-02-11T00:28:52.781Z,26.08
2023-02-11T00:31:22.597Z,27.48
2023-02-11T00:33:50.662Z,26.45
2023-02-11T00:36:22.595Z,27.63
2023-02-11T00:38:52.993Z,26.30
2023-02-11T00:41:21.890Z,27.45
2023-02-11T00:43:50.206Z,26.20
2023-02-11T00:46:18.015Z,25.40
2023-02-11T00:48:48.292Z,26.63
2023-02-11T00:51:16.158Z,25.73
2023-02-11T00:53:43.898Z,25.42
2023-02-11T00:56:15.169Z,23.25
2023-02-11T00:58:42.824Z,24.77
2023-02-11T01:01:10.932Z,27.35
2023-02-11T01:03:38.692Z,25.15
2023-02-11T01:06:07.248Z,24.15
2023-02-11T01:08:34.979Z,24.52
2023-02-11T01:11:05.329Z,25.13
2023-02-11T01:13:37.100Z,24.73
2023-02-11T01:16:08.376Z,22.58
2023-02-11T01:18:36.217Z,24.00
2023-02-11T01:21:04.341Z,25.45
2023-02-11T01:23:32.052Z,23.73
2023-02-11T01:25:59.776Z,22.88
2023-02-11T01:28:30.056Z,22.23
2023-02-11T01:30:59.188Z,23.30
2023-02-11T01:33:26.891Z,23.70
2023-02-11T01:35:54.816Z,24.45
2023-02-11T01:38:24.826Z,23.60
2023-02-11T01:40:55.340Z,22.63
2023-02-11T01:43:23.735Z,21.65
2023-02-11T01:46:01.569Z,21.20
2023-02-11T01:48:33.512Z,21.35
2023-02-11T01:51:07.368Z,18.80
2023-02-11T01:53:53.795Z,20.85
2023-02-11T01:56:39.872Z,22.50
2023-02-11T01:59:13.518Z,22.13
2023-02-11T02:01:49.507Z,20.88
2023-02-11T02:04:19.719Z,21.35
2023-02-11T02:06:55.665Z,21.85
2023-02-11T02:09:27.774Z,21.55
2023-02-11T02:11:55.566Z,20.15
2023-02-11T02:14:23.300Z,21.02
2023-02-11T02:16:52.471Z,20.27
2023-02-11T02:19:50.968Z,21.35
2023-02-11T02:22:54.517Z,20.73
2023-02-11T02:25:49.205Z,20.10
2023-02-11T02:28:44.700Z,21.02
2023-02-11T02:31:38.464Z,21.17
2023-02-11T02:34:15.210Z,19.08
2023-02-11T02:36:49.894Z,18.45
2023-02-11T02:39:22.891Z,19.88
2023-02-11T02:41:53.829Z,19.67
2023-02-11T02:44:22.270Z,20.60
2023-02-11T02:46:50.027Z,20.58
2023-02-11T02:49:19.203Z,18.10
2023-02-11T02:52:01.642Z,18.13
2023-02-11T02:54:58.656Z,18.00
2023-02-11T02:57:33.500Z,19.27
2023-02-11T03:00:12.735Z,19.52
2023-02-11T03:02:47.945Z,17.67
2023-02-11T03:05:22.667Z,18.88
2023-02-11T03:07:55.390Z,18.48
2023-02-11T03:10:28.005Z,17.75
2023-02-11T03:12:58.045Z,18.02
2023-02-11T03:15:29.241Z,18.17
2023-02-11T03:18:01.703Z,17.90
2023-02-11T03:23:07.386Z,18.27
2023-02-11T03:25:42.269Z,18.52
2023-02-11T03:28:15.262Z,18.02
2023-02-11T03:30:48.115Z,18.98
2023-02-11T03:33:20.980Z,17.83
2023-02-11T03:35:55.191Z,18.08
2023-02-11T03:38:27.035Z,17.83
2023-02-11T03:40:57.072Z,17.10
2023-02-11T03:43:29.762Z,16.63
2023-02-11T03:45:58.201Z,16.42
2023-02-11T03:48:31.114Z,17.15
2023-02-11T03:51:03.020Z,17.05
2023-02-11T03:53:30.808Z,16.00
2023-02-11T03:56:03.728Z,17.33
2023-02-11T03:58:31.917Z,16.80
2023-02-11T04:00:59.662Z,16.55
2023-02-11T04:03:29.552Z,16.52
2023-02-11T04:05:57.291Z,18.23
2023-02-11T04:08:26.402Z,18.63
2023-02-11T04:10:54.098Z,17.00
2023-02-11T04:13:21.801Z,17.75
2023-02-11T04:15:50.078Z,17.77
2023-02-11T04:18:18.118Z,18.70
2023-02-11T04:20:45.862Z,17.58
2023-02-11T04:23:13.973Z,17.67
2023-02-11T04:25:43.612Z,18.83
2023-02-11T04:28:11.429Z,17.80
2023-02-11T04:30:39.218Z,17.73
2023-02-11T04:33:07.048Z,17.23
2023-02-11T04:35:34.792Z,17.08
2023-02-11T04:38:02.476Z,17.65
2023-02-11T04:40:30.144Z,18.05
2023-02-11T04:42:59.343Z,18.15
2023-02-11T04:45:27.095Z,17.50
2023-02-11T04:47:54.785Z,17.67
2023-02-11T04:50:22.500Z,18.35
2023-02-11T04:52:50.120Z,17.73
2023-02-11T04:55:17.976Z,17.60
2023-02-11T04:57:45.687Z,19.02
2023-02-11T05:00:16.254Z,19.10
2023-02-11T05:02:43.906Z,18.98
2023-02-11T05:05:14.025Z,19.67
2023-02-11T05:07:41.715Z,19.58
2023-02-11T05:10:09.882Z,17.30
2023-02-11T05:12:37.546Z,18.17
2023-02-11T05:15:05.877Z,19.40
2023-02-11T05:17:34.916Z,22.05
2023-02-11T05:20:05.950Z,21.38
2023-02-11T05:22:33.665Z,19.33
2023-02-11T05:25:01.436Z,21.90
2023-02-11T05:27:29.123Z,20.98
2023-02-11T05:29:56.773Z,20.40
2023-02-11T05:32:40.067Z,21.88
2023-02-11T05:35:07.956Z,23.23
2023-02-11T05:37:35.699Z,23.02
2023-02-11T05:40:03.414Z,20.98
2023-02-11T05:42:31.048Z,22.65
2023-02-11T05:44:58.862Z,23.45
2023-02-11T05:47:26.578Z,23.70
2023-02-11T05:49:56.260Z,21.48
2023-02-11T05:52:24.227Z,24.70
2023-02-11T05:54:52.215Z,24.45
2023-02-11T05:57:20.386Z,25.60
2023-02-11T05:59:48.047Z,26.23
2023-02-11T06:02:16.728Z,24.77
2023-02-11T06:04:44.589Z,25.67
2023-02-11T06:07:13.635Z,27.33
2023-02-11T06:09:41.419Z,25.30
2023-02-11T06:12:09.117Z,25.25
2023-02-11T06:14:36.788Z,27.20
2023-02-11T06:17:05.071Z,29.42
2023-02-11T06:19:32.716Z,27.73
2023-02-11T06:22:00.405Z,28.08
2023-02-11T06:24:54.727Z,27.63
2023-02-11T06:27:17.901Z,27.88
2023-02-11T06:29:45.903Z,29.63
2023-02-11T06:32:36.969Z,28.52
2023-02-11T06:35:01.541Z,28.42
2023-02-11T06:37:29.275Z,28.55
2023-02-11T06:39:58.294Z,28.08
2023-02-11T06:42:25.929Z,27.88
2023-02-11T06:44:53.688Z,29.30
2023-02-11T06:47:21.396Z,25.42
2023-02-11T06:49:49.061Z,26.75
2023-02-11T06:52:16.691Z,27.92
2023-02-11T06:54:44.407Z,25.63
2023-02-11T06:57:13.438Z,27.60
2023-02-11T06:59:41.053Z,25.42
2023-02-11T07:02:10.404Z,26.50
2023-02-11T07:04:38.182Z,25.60
2023-02-11T07:07:05.878Z,23.75
2023-02-11T07:09:33.602Z,25.15
2023-02-11T07:12:01.310Z,25.67
2023-02-11T07:14:30.389Z,26.17
2023-02-11T07:16:58.166Z,25.17
2023-02-11T07:19:25.814Z,26.00
2023-02-11T07:21:53.485Z,26.17
2023-02-11T07:24:21.146Z,25.38
2023-02-11T07:26:48.768Z,26.63
2023-02-11T07:29:16.446Z,24.15
2023-02-11T07:31:47.389Z,25.10
2023-02-11T07:34:15.153Z,26.35
2023-02-11T07:36:43.659Z,23.17
2023-02-11T07:39:11.461Z,26.60
2023-02-11T07:41:39.650Z,26.55
2023-02-11T07:44:07.775Z,24.10
2023-02-11T07:46:35.828Z,25.08
2023-02-11T07:49:04.949Z,25.05
2023-02-11T07:51:32.881Z,25.05
2023-02-11T07:54:01.233Z,26.50
2023-02-11T07:56:29.870Z,23.90
2023-02-11T07:59:00.961Z,25.48
2023-02-11T08:01:29.251Z,26.48
2023-02-11T08:03:58.740Z,24.73
2023-02-11T08:06:30.262Z,26.60
2023-02-11T08:08:58.320Z,25.30
2023-02-11T08:11:27.778Z,24.27
2023-02-11T08:13:57.438Z,26.42
2023-02-11T08:16:27.307Z,27.30
2023-02-11T08:18:57.302Z,26.98
2023-02-11T08:21:27.130Z,26.17
2023-02-11T08:23:55.119Z,27.20
2023-02-11T08:26:24.674Z,25.98
2023-02-11T08:28:53.897Z,23.70
2023-02-11T08:31:23.905Z,27.10
2023-02-11T08:33:52.246Z,25.55
2023-02-11T08:36:23.166Z,26.48
2023-02-11T08:38:52.391Z,25.92
2023-02-11T08:41:20.121Z,26.70
2023-02-11T08:43:47.861Z,26.35
2023-02-11T08:46:18.429Z,26.38
2023-02-11T08:48:47.125Z,26.27
2023-02-11T08:51:17.300Z,25.45
2023-02-11T08:53:45.367Z,26.40
2023-02-11T08:56:17.271Z,27.63
2023-02-11T08:58:45.011Z,26.48
2023-02-11T09:01:13.761Z,26.83
2023-02-11T09:03:41.814Z,28.17
2023-02-11T09:06:11.316Z,29.20
2023-02-11T09:08:40.372Z,27.98
2023-02-11T09:11:08.974Z,28.88
2023-02-11T09:13:38.727Z,27.42
2023-02-11T09:16:07.184Z,30.90
2023-02-11T09:18:34.915Z,27.73
2023-02-11T09:21:07.585Z,27.77
2023-02-11T09:23:35.764Z,29.85
2023-02-11T09:26:09.204Z,29.60
2023-02-11T09:28:38.759Z,30.35
2023-02-11T09:31:07.586Z,31.17
2023-02-11T09:33:35.512Z,30.88
2023-02-11T09:36:03.483Z,30.08
2023-02-11T09:38:31.347Z,26.65
2023-02-11T09:40:59.673Z,30.63
2023-02-11T09:43:34.135Z,29.25
2023-02-11T09:46:03.830Z,30.60
2023-02-11T09:48:39.387Z,31.38
2023-02-11T09:51:14.038Z,31.33
2023-02-11T09:53:44.236Z,31.63
2023-02-11T09:56:14.683Z,30.52
2023-02-11T09:58:44.478Z,30.95
2023-02-11T10:01:21.824Z,30.48
2023-02-11T10:04:01.883Z,34.33
2023-02-11T10:06:40.789Z,32.00
2023-02-11T10:09:21.144Z,31.98
2023-02-11T10:11:59.936Z,32.88
2023-02-11T10:14:50.448Z,32.60
2023-02-11T10:17:29.705Z,33.00
2023-02-11T10:20:09.763Z,30.05
2023-02-11T10:22:42.420Z,30.98
2023-02-11T10:25:21.205Z,32.33
2023-02-11T10:27:49.743Z,32.63
2023-02-11T10:30:24.762Z,33.78
2023-02-11T10:32:58.779Z,30.25
2023-02-11T10:35:27.227Z,35.50
2023-02-11T10:37:56.031Z,32.22
2023-02-11T10:40:25.496Z,34.78
2023-02-11T10:42:56.175Z,34.00
2023-02-11T10:45:29.364Z,33.28
2023-02-11T10:47:59.504Z,33.30
2023-02-11T10:50:29.501Z,35.20
2023-02-11T10:53:14.280Z,34.78
2023-02-11T10:55:51.224Z,37.42
2023-02-11T10:58:27.003Z,34.08
2023-02-11T11:00:56.822Z,35.65
2023-02-11T11:03:28.732Z,35.38
2023-02-11T11:05:59.763Z,35.45
2023-02-11T11:08:40.640Z,34.40
2023-02-11T11:11:10.814Z,37.70
2023-02-11T11:13:40.616Z,36.65
2023-02-11T11:16:23.498Z,35.20
2023-02-11T11:18:54.668Z,38.20
2023-02-11T11:21:27.209Z,34.92
2023-02-11T11:26:26.392Z,34.97
2023-02-11T11:29:01.167Z,36.78
2023-02-11T11:31:32.895Z,36.25
2023-02-11T11:34:05.931Z,37.45
2023-02-11T11:36:37.714Z,34.90
2023-02-11T11:39:19.703Z,38.50
2023-02-11T11:41:52.815Z,38.42
2023-02-11T11:44:27.714Z,36.67
2023-02-11T11:47:24.301Z,36.53
2023-02-11T11:50:06.272Z,37.42
2023-02-11T11:52:45.438Z,37.08
2023-02-11T11:55:19.419Z,37.55
2023-02-11T11:57:47.416Z,37.97
2023-02-11T12:00:17.928Z,38.38
2023-02-11T12:03:20.797Z,37.30
2023-02-11T12:06:01.503Z,38.08
2023-02-11T12:08:43.753Z,38.00
2023-02-11T12:11:20.664Z,34.40
2023-02-11T12:14:05.250Z,36.22
2023-02-11T12:16:42.390Z,37.72
2023-02-11T12:19:42.900Z,36.55
2023-02-11T12:22:27.392Z,37.15
2023-02-11T12:25:10.650Z,39.45
2023-02-11T12:27:49.371Z,38.50
2023-02-11T12:30:41.892Z,38.40
2023-02-11T12:33:21.416Z,37.33
2023-02-11T12:35:59.669Z,38.20
2023-02-11T12:38:52.324Z,37.75
2023-02-11T12:41:58.731Z,38.95
2023-02-11T12:44:35.153Z,37.72
2023-02-11T12:47:13.873Z,39.10
2023-02-11T12:50:03.384Z,38.25
2023-02-11T12:52:46.153Z,37.78
2023-02-11T12:55:23.499Z,36.63
2023-02-11T12:57:54.092Z,36.85
2023-02-11T13:00:25.641Z,36.55
2023-02-11T13:02:59.824Z,37.37
2023-02-11T13:05:30.475Z,38.70
2023-02-11T13:08:05.952Z,36.88
2023-02-11T13:10:37.885Z,36.78
2023-02-11T13:13:17.598Z,36.63
2023-02-11T13:15:52.382Z,37.78
2023-02-11T13:18:35.977Z,38.00
2023-02-11T13:21:33.459Z,39.72
2023-02-11T13:24:09.232Z,38.08
2023-02-11T13:26:47.235Z,37.40
2023-02-11T13:29:23.598Z,37.45
2023-02-11T13:31:55.776Z,36.53
2023-02-11T13:34:28.328Z,39.05
2023-02-11T13:39:25.276Z,37.83
2023-02-11T13:42:04.003Z,37.90
2023-02-11T13:44:35.763Z,37.65
2023-02-11T13:47:06.374Z,37.10
2023-02-11T13:49:40.601Z,35.95
2023-02-11T13:52:23.476Z,37.22
2023-02-11T13:57:40.153Z,34.83
2023-02-11T14:01:06.302Z,36.47
2023-02-11T14:03:57.333Z,36.03
2023-02-11T14:07:01.238Z,37.03
2023-02-11T14:09:40.703Z,34.95
2023-02-11T14:12:24.223Z,36.92
2023-02-11T14:15:39.093Z,37.83
2023-02-11T14:18:59.458Z,37.40
2023-02-11T14:21:35.453Z,35.63
2023-02-11T14:24:46.499Z,33.83
2023-02-11T14:27:26.669Z,35.00
2023-02-11T14:30:14.982Z,34.47
2023-02-11T14:33:01.639Z,34.97
2023-02-11T14:35:45.092Z,36.13
2023-02-11T14:38:22.984Z,35.30
2023-02-11T14:40:56.863Z,33.13
2023-02-11T14:43:29.546Z,34.10
2023-02-11T14:45:59.726Z,34.28
2023-02-11T14:48:32.518Z,34.47
2023-02-11T14:51:03.178Z,33.22
2023-02-11T14:53:33.697Z,34.92
2023-02-11T14:56:01.685Z,32.60
2023-02-11T14:58:31.682Z,37.63
2023-02-11T15:01:02.017Z,37.45
2023-02-11T15:03:42.669Z,43.60
2023-02-11T15:06:19.385Z,40.85
2023-02-11T15:08:50.568Z,36.33
2023-02-11T15:11:21.222Z,38.28
2023-02-11T15:13:50.409Z,36.20
2023-02-11T15:16:22.215Z,37.22
2023-02-11T15:18:54.212Z,39.70
2023-02-11T15:21:24.724Z,36.58
2023-02-11T15:24:01.091Z,36.90
2023-02-11T15:26:29.469Z,35.28
2023-02-11T15:28:57.644Z,35.00
2023-02-11T15:31:28.324Z,33.80
2023-02-11T15:34:07.655Z,35.67
2023-02-11T15:36:37.083Z,33.75
2023-02-11T15:39:18.801Z,32.30
2023-02-11T15:41:48.541Z,33.60
2023-02-11T15:44:29.768Z,32.92
2023-02-11T15:46:57.757Z,34.17
2023-02-11T15:49:27.513Z,34.08
2023-02-11T15:51:58.452Z,33.08
2023-02-11T15:54:29.471Z,33.50
2023-02-11T15:57:03.967Z,32.83
2023-02-11T15:59:38.133Z,34.00
2023-02-11T16:02:17.127Z,34.80
2023-02-11T16:04:53.483Z,34.40
2023-02-11T16:07:43.178Z,33.13
2023-02-11T16:10:25.447Z,32.65
2023-02-11T16:12:55.733Z,33.42
2023-02-11T16:15:44.483Z,33.72
2023-02-11T16:18:39.387Z,37.03
2023-02-11T16:21:16.736Z,36.55
2023-02-11T16:23:51.849Z,37.17
2023-02-11T16:26:28.830Z,37.53
2023-02-11T16:29:07.938Z,38.22
2023-02-11T16:31:37.514Z,37.67
2023-02-11T16:34:13.075Z,36.95
2023-02-11T16:36:42.699Z,42.55
2023-02-11T16:39:11.427Z,37.10
2023-02-11T16:41:39.795Z,35.88
2023-02-11T16:44:08.288Z,34.80
2023-02-11T16:46:38.244Z,43.88
2023-02-11T16:49:11.693Z,45.03
2023-02-11T16:51:41.081Z,37.25
2023-02-11T16:54:14.261Z,37.83
2023-02-11T16:56:42.153Z,37.97
2023-02-11T16:59:10.733Z,39.30
2023-02-11T17:01:40.176Z,40.35
2023-02-11T17:04:11.728Z,40.08
2023-02-11T17:06:39.559Z,38.33
2023-02-11T17:09:08.569Z,37.58
2023-02-11T17:11:37.775Z,45.30
2023-02-11T17:14:05.543Z,43.90
2023-02-11T17:16:33.355Z,45.58
2023-02-11T17:19:04.231Z,40.67
2023-02-11T17:21:32.261Z,41.20
2023-02-11T17:24:00.578Z,39.25
2023-02-11T17:26:28.515Z,38.85
2023-02-11T17:28:57.804Z,41.17
2023-02-11T17:31:25.839Z,40.80
2023-02-11T17:33:53.666Z,40.05
2023-02-11T17:36:21.460Z,39.35
2023-02-11T17:38:49.193Z,41.10
2023-02-11T17:41:16.973Z,40.17
2023-02-11T17:43:44.963Z,50.22
2023-02-11T17:46:14.312Z,47.40
2023-02-11T17:48:42.221Z,45.47
2023-02-11T17:51:23.975Z,41.28
2023-02-11T17:53:51.802Z,41.10
2023-02-11T17:56:19.844Z,41.90
2023-02-11T17:58:50.296Z,43.40
2023-02-11T18:01:19.479Z,42.65
2023-02-11T18:03:50.162Z,45.28
2023-02-11T18:06:17.964Z,44.75
2023-02-11T18:08:45.709Z,47.58
2023-02-11T18:11:15.153Z,43.78
2023-02-11T18:13:43.377Z,46.40
2023-02-11T18:16:15.529Z,46.33
2023-02-11T18:18:53.958Z,46.05
2023-02-11T18:21:23.385Z,45.50
2023-02-11T18:23:51.557Z,49.47
2023-02-11T18:26:21.615Z,49.17
2023-02-11T18:28:49.478Z,47.00
2023-02-11T18:31:18.332Z,44.53
2023-02-11T18:33:47.910Z,48.33
2023-02-11T18:36:16.928Z,43.97
2023-02-11T18:38:49.906Z,43.58
2023-02-11T18:41:17.700Z,44.50
2023-02-11T18:43:45.634Z,45.55
2023-02-11T18:46:15.389Z,45.47
2023-02-11T18:48:44.777Z,42.95
2023-02-11T18:51:15.863Z,46.80
2023-02-11T18:53:44.436Z,48.75
2023-02-11T18:56:15.279Z,49.63
2023-02-11T18:58:43.479Z,47.25
2023-02-11T19:01:13.924Z,46.70
2023-02-11T19:03:41.803Z,49.58
2023-02-11T19:06:16.913Z,53.72
2023-02-11T19:08:44.693Z,53.92
2023-02-11T19:11:12.955Z,51.55
2023-02-11T19:13:40.703Z,50.33
2023-02-11T19:16:11.438Z,47.45
2023-02-11T19:18:39.654Z,47.97
2023-02-11T19:21:09.238Z,45.88
2023-02-11T19:23:39.379Z,45.83
2023-02-11T19:26:07.432Z,47.08
2023-02-11T19:28:37.195Z,45.88
2023-02-11T19:31:09.280Z,49.60
2023-02-11T19:33:37.781Z,51.50
2023-02-11T19:36:07.423Z,46.78
2023-02-11T19:38:35.820Z,50.25
2023-02-11T19:41:05.427Z,48.72
2023-02-11T19:43:33.340Z,51.10
2023-02-11T19:46:02.950Z,53.28
2023-02-11T19:48:31.129Z,56.47
2023-02-11T19:50:59.374Z,54.70
2023-02-11T19:53:27.731Z,53.05
2023-02-11T19:55:55.552Z,49.05
2023-02-11T19:58:24.718Z,52.33
2023-02-11T20:00:52.554Z,50.90
2023-02-11T20:03:20.291Z,50.08
2023-02-11T20:05:48.045Z,50.28
2023-02-11T20:08:17.122Z,48.97
2023-02-11T20:10:44.948Z,50.50
2023-02-11T20:13:12.684Z,47.30
2023-02-11T20:15:41.955Z,49.85
2023-02-11T20:18:09.700Z,51.35
2023-02-11T20:20:39.383Z,50.40
2023-02-11T20:23:07.144Z,51.45
2023-02-11T20:25:34.933Z,47.42
2023-02-11T20:28:03.678Z,50.20
2023-02-11T20:30:31.465Z,48.55
2023-02-11T20:33:00.599Z,49.20
2023-02-11T20:35:28.331Z,51.13
2023-02-11T20:37:56.161Z,48.60
2023-02-11T20:40:23.903Z,49.35
2023-02-11T20:42:52.417Z,49.38
2023-02-11T20:45:20.110Z,50.17
2023-02-11T20:47:47.846Z,49.72
2023-02-11T20:50:17.054Z,48.53
2023-02-11T20:52:44.847Z,52.53
2023-02-11T20:55:13.124Z,52.70
2023-02-11T20:57:40.847Z,50.95
2023-02-11T21:00:13.139Z,52.50
2023-02-11T21:02:42.569Z,53.88
2023-02-11T21:05:10.326Z,55.08
2023-02-11T21:07:39.497Z,49.72
2023-02-11T21:10:16.990Z,51.47
2023-02-11T21:12:44.711Z,50.55
2023-02-11T21:15:13.603Z,52.40
2023-02-11T21:17:41.419Z,49.70
2023-02-11T21:20:15.097Z,50.67
2023-02-11T21:22:44.131Z,48.53
2023-02-11T21:25:11.833Z,52.70
2023-02-11T21:27:39.739Z,51.58
2023-02-11T21:30:08.813Z,50.20
2023-02-11T21:32:36.584Z,49.78
2023-02-11T21:35:04.348Z,48.58
2023-02-11T21:37:32.254Z,51.60
2023-02-11T21:40:01.404Z,51.90
2023-02-11T21:42:29.155Z,48.42
2023-02-11T21:44:56.876Z,48.55
2023-02-11T21:47:24.591Z,50.95
2023-02-11T21:49:52.380Z,52.03
2023-02-11T21:52:20.126Z,49.95
2023-02-11T21:54:50.505Z,49.50
2023-02-11T21:57:19.827Z,49.78
2023-02-11T21:59:47.514Z,50.78
2023-02-11T22:02:15.217Z,48.78
2023-02-11T22:04:42.978Z,50.75
2023-02-11T22:07:10.769Z,49.15
2023-02-11T22:09:39.328Z,46.67
2023-02-11T22:12:08.669Z,49.67
2023-02-11T22:14:38.276Z,49.15
2023-02-11T22:17:08.488Z,47.55
2023-02-11T22:19:36.232Z,48.17
2023-02-11T22:22:04.069Z,46.33
2023-02-11T22:24:31.728Z,42.78
2023-02-11T22:26:59.421Z,45.17
2023-02-11T22:29:27.117Z,50.13
2023-02-11T22:31:56.262Z,46.70
2023-02-11T22:34:24.011Z,47.50
2023-02-11T22:36:51.723Z,44.85
2023-02-11T22:39:19.473Z,47.88
2023-02-11T22:41:49.952Z,45.60
2023-02-11T22:44:18.368Z,49.50
2023-02-11T22:46:46.060Z,47.03
2023-02-11T22:49:17.208Z,46.90
2023-02-11T22:51:44.995Z,46.63
2023-02-11T22:54:15.337Z,46.75
2023-02-11T22:56:43.404Z,47.05
2023-02-11T22:59:13.896Z,45.67
2023-02-11T23:01:42.384Z,45.95
2023-02-11T23:04:12.881Z,47.92
2023-02-11T23:06:42.021Z,44.30
2023-02-11T23:09:12.180Z,47.78
2023-02-11T23:11:40.951Z,46.92
2023-02-11T23:14:11.952Z,41.72
2023-02-11T23:16:39.943Z,48.57
2023-02-11T23:19:09.951Z,44.63
2023-02-11T23:21:41.056Z,49.00
2023-02-11T23:24:11.915Z,45.80
2023-02-11T23:26:40.372Z,48.97
2023-02-11T23:29:08.857Z,44.42
2023-02-11T23:31:39.803Z,49.22
2023-02-11T23:34:08.518Z,49.97
2023-02-11T23:36:36.579Z,50.20
2023-02-11T23:39:15.301Z,45.90
2023-02-11T23:41:43.070Z,46.08
2023-02-11T23:44:11.761Z,46.67
2023-02-11T23:46:39.847Z,46.58
2023-02-11T23:49:07.652Z,47.80
2023-02-11T23:51:35.412Z,47.25
2023-02-11T23:54:03.390Z,49.33
2023-02-11T23:56:33.130Z,45.75
2023-02-11T23:59:00.957Z,46.42
